sensor_id;sensor_type;location;lat;lon;timestamp;temperature;humidity
66835;HTU21D;53743;51.100;5.874;2023-11-19T00:00:09;13.70;105.33
66835;HTU21D;53743;51.100;5.874;2023-11-19T00:01:12;13.71;105.72
66835;HTU21D;53743;51.100;5.874;2023-11-19T00:02:13;13.74;105.66
66835;HTU21D;53743;51.100;5.874;2023-11-19T00:03:16;13.76;105.54
66835;HTU21D;53743;51.100;5.874;2023-11-19T00:04:17;13.76;105.55
66835;HTU21D;53743;51.100;5.874;2023-11-19T00:05:19;13.78;105.60
66835;HTU21D;53743;51.100;5.874;2023-11-19T00:06:20;13.77;105.31
66835;HTU21D;53743;51.100;5.874;2023-11-19T00:07:24;13.77;105.28
66835;HTU21D;53743;51.100;5.874;2023-11-19T00:08:25;13.78;105.50
66835;HTU21D;53743;51.100;5.874;2023-11-19T00:09:27;13.76;105.46
66835;HTU21D;53743;51.100;5.874;2023-11-19T00:10:28;13.76;105.53
66835;HTU21D;53743;51.100;5.874;2023-11-19T00:11:30;13.77;105.41
66835;HTU21D;53743;51.100;5.874;2023-11-19T00:12:31;13.78;105.42
66835;HTU21D;53743;51.100;5.874;2023-11-19T00:13:33;13.78;105.28
66835;HTU21D;53743;51.100;5.874;2023-11-19T00:14:36;13.78;105.26
66835;HTU21D;53743;51.100;5.874;2023-11-19T00:15:37;13.80;105.23
66835;HTU21D;53743;51.100;5.874;2023-11-19T00:16:39;13.80;105.28
66835;HTU21D;53743;51.100;5.874;2023-11-19T00:17:41;13.81;105.21
66835;HTU21D;53743;51.100;5.874;2023-11-19T00:18:45;13.78;105.10
66835;HTU21D;53743;51.100;5.874;2023-11-19T00:19:46;13.79;105.34
66835;HTU21D;53743;51.100;5.874;2023-11-19T00:20:48;13.79;105.21
66835;HTU21D;53743;51.100;5.874;2023-11-19T00:21:49;13.79;105.31
66835;HTU21D;53743;51.100;5.874;2023-11-19T00:22:50;13.75;105.08
66835;HTU21D;53743;51.100;5.874;2023-11-19T00:23:52;13.75;105.15
66835;HTU21D;53743;51.100;5.874;2023-11-19T00:24:53;13.77;105.34
66835;HTU21D;53743;51.100;5.874;2023-11-19T00:25:54;13.79;105.39
66835;HTU21D;53743;51.100;5.874;2023-11-19T00:26:56;13.81;105.37
66835;HTU21D;53743;51.100;5.874;2023-11-19T00:27:57;13.79;105.21
66835;HTU21D;53743;51.100;5.874;2023-11-19T00:29:00;13.79;105.31
66835;HTU21D;53743;51.100;5.874;2023-11-19T00:30:04;13.80;105.13
66835;HTU21D;53743;51.100;5.874;2023-11-19T00:31:06;13.83;105.32
66835;HTU21D;53743;51.100;5.874;2023-11-19T00:32:08;13.79;105.59
66835;HTU21D;53743;51.100;5.874;2023-11-19T00:33:09;13.80;105.39
66835;HTU21D;53743;51.100;5.874;2023-11-19T00:34:12;13.80;105.52
66835;HTU21D;53743;51.100;5.874;2023-11-19T00:35:16;13.78;105.60
66835;HTU21D;53743;51.100;5.874;2023-11-19T00:36:18;13.83;105.33
66835;HTU21D;53743;51.100;5.874;2023-11-19T00:37:20;13.83;105.60
66835;HTU21D;53743;51.100;5.874;2023-11-19T00:38:21;13.86;105.51
66835;HTU21D;53743;51.100;5.874;2023-11-19T00:39:25;13.85;105.38
66835;HTU21D;53743;51.100;5.874;2023-11-19T00:40:27;13.85;105.67
66835;HTU21D;53743;51.100;5.874;2023-11-19T00:41:29;13.88;105.47
66835;HTU21D;53743;51.100;5.874;2023-11-19T00:42:31;13.90;105.56
66835;HTU21D;53743;51.100;5.874;2023-11-19T00:43:32;13.91;105.36
66835;HTU21D;53743;51.100;5.874;2023-11-19T00:44:35;13.93;105.19
66835;HTU21D;53743;51.100;5.874;2023-11-19T00:45:37;13.91;105.41
66835;HTU21D;53743;51.100;5.874;2023-11-19T00:46:39;13.95;104.98
66835;HTU21D;53743;51.100;5.874;2023-11-19T00:47:40;13.98;104.63
66835;HTU21D;53743;51.100;5.874;2023-11-19T00:48:43;13.96;104.63
66835;HTU21D;53743;51.100;5.874;2023-11-19T00:49:44;14.01;105.08
66835;HTU21D;53743;51.100;5.874;2023-11-19T00:50:46;14.00;104.92
66835;HTU21D;53743;51.100;5.874;2023-11-19T00:51:47;14.00;105.06
66835;HTU21D;53743;51.100;5.874;2023-11-19T00:52:50;14.00;104.58
66835;HTU21D;53743;51.100;5.874;2023-11-19T00:53:52;14.01;104.96
66835;HTU21D;53743;51.100;5.874;2023-11-19T00:54:54;14.05;105.05
66835;HTU21D;53743;51.100;5.874;2023-11-19T00:55:55;13.99;104.99
66835;HTU21D;53743;51.100;5.874;2023-11-19T00:56:57;14.00;105.20
66835;HTU21D;53743;51.100;5.874;2023-11-19T00:57:58;14.00;105.47
66835;HTU21D;53743;51.100;5.874;2023-11-19T00:59:00;14.04;105.47
66835;HTU21D;53743;51.100;5.874;2023-11-19T01:00:02;14.04;105.37
66835;HTU21D;53743;51.100;5.874;2023-11-19T01:01:11;14.05;105.40
66835;HTU21D;53743;51.100;5.874;2023-11-19T01:02:12;14.06;104.89
66835;HTU21D;53743;51.100;5.874;2023-11-19T01:03:14;14.07;105.14
66835;HTU21D;53743;51.100;5.874;2023-11-19T01:04:16;14.05;104.86
66835;HTU21D;53743;51.100;5.874;2023-11-19T01:05:18;14.03;104.92
66835;HTU21D;53743;51.100;5.874;2023-11-19T01:06:27;14.03;105.14
66835;HTU21D;53743;51.100;5.874;2023-11-19T01:07:29;14.10;105.19
66835;HTU21D;53743;51.100;5.874;2023-11-19T01:08:30;14.11;104.66
66835;HTU21D;53743;51.100;5.874;2023-11-19T01:09:33;14.09;104.44
66835;HTU21D;53743;51.100;5.874;2023-11-19T01:10:37;14.11;104.84
66835;HTU21D;53743;51.100;5.874;2023-11-19T01:11:38;14.11;105.02
66835;HTU21D;53743;51.100;5.874;2023-11-19T01:12:40;14.11;104.79
66835;HTU21D;53743;51.100;5.874;2023-11-19T01:13:41;14.11;104.96
66835;HTU21D;53743;51.100;5.874;2023-11-19T01:14:44;14.10;105.16
66835;HTU21D;53743;51.100;5.874;2023-11-19T01:15:45;14.05;104.82
66835;HTU21D;53743;51.100;5.874;2023-11-19T01:16:49;14.04;104.85
66835;HTU21D;53743;51.100;5.874;2023-11-19T01:17:50;14.03;105.32
66835;HTU21D;53743;51.100;5.874;2023-11-19T01:18:52;14.11;104.80
66835;HTU21D;53743;51.100;5.874;2023-11-19T01:19:53;14.08;104.45
66835;HTU21D;53743;51.100;5.874;2023-11-19T01:20:55;14.09;104.59
66835;HTU21D;53743;51.100;5.874;2023-11-19T01:21:57;14.06;104.66
66835;HTU21D;53743;51.100;5.874;2023-11-19T01:22:58;14.09;104.97
66835;HTU21D;53743;51.100;5.874;2023-11-19T01:24:00;14.10;104.92
66835;HTU21D;53743;51.100;5.874;2023-11-19T01:25:01;14.13;104.91
66835;HTU21D;53743;51.100;5.874;2023-11-19T01:26:05;14.12;104.89
66835;HTU21D;53743;51.100;5.874;2023-11-19T01:27:06;14.18;104.98
66835;HTU21D;53743;51.100;5.874;2023-11-19T01:28:09;14.14;104.95
66835;HTU21D;53743;51.100;5.874;2023-11-19T01:29:10;14.18;104.27
66835;HTU21D;53743;51.100;5.874;2023-11-19T01:30:14;14.19;104.72
66835;HTU21D;53743;51.100;5.874;2023-11-19T01:31:16;14.19;104.95
66835;HTU21D;53743;51.100;5.874;2023-11-19T01:32:19;14.18;104.70
66835;HTU21D;53743;51.100;5.874;2023-11-19T01:33:21;14.19;105.23
66835;HTU21D;53743;51.100;5.874;2023-11-19T01:34:23;14.24;104.95
66835;HTU21D;53743;51.100;5.874;2023-11-19T01:35:24;14.24;104.88
66835;HTU21D;53743;51.100;5.874;2023-11-19T01:36:26;14.26;105.04
66835;HTU21D;53743;51.100;5.874;2023-11-19T01:37:27;14.27;104.64
66835;HTU21D;53743;51.100;5.874;2023-11-19T01:38:29;14.29;105.10
66835;HTU21D;53743;51.100;5.874;2023-11-19T01:39:29;14.30;104.79
66835;HTU21D;53743;51.100;5.874;2023-11-19T01:40:31;14.37;104.84
66835;HTU21D;53743;51.100;5.874;2023-11-19T01:41:34;14.35;104.02
66835;HTU21D;53743;51.100;5.874;2023-11-19T01:42:37;14.36;104.40
66835;HTU21D;53743;51.100;5.874;2023-11-19T01:43:39;14.34;104.18
66835;HTU21D;53743;51.100;5.874;2023-11-19T01:44:42;14.39;104.67
66835;HTU21D;53743;51.100;5.874;2023-11-19T01:45:43;14.38;104.02
66835;HTU21D;53743;51.100;5.874;2023-11-19T01:46:46;14.36;104.12
66835;HTU21D;53743;51.100;5.874;2023-11-19T01:47:50;14.34;103.95
66835;HTU21D;53743;51.100;5.874;2023-11-19T01:48:54;14.39;104.06
66835;HTU21D;53743;51.100;5.874;2023-11-19T01:49:57;14.39;103.77
66835;HTU21D;53743;51.100;5.874;2023-11-19T01:51:00;14.38;103.86
66835;HTU21D;53743;51.100;5.874;2023-11-19T01:52:03;14.38;104.34
66835;HTU21D;53743;51.100;5.874;2023-11-19T01:53:05;14.36;104.21
66835;HTU21D;53743;51.100;5.874;2023-11-19T01:54:08;14.34;104.02
66835;HTU21D;53743;51.100;5.874;2023-11-19T01:55:11;14.37;104.29
66835;HTU21D;53743;51.100;5.874;2023-11-19T01:56:15;14.35;103.95
66835;HTU21D;53743;51.100;5.874;2023-11-19T01:57:17;14.35;103.88
66835;HTU21D;53743;51.100;5.874;2023-11-19T01:58:18;14.33;103.81
66835;HTU21D;53743;51.100;5.874;2023-11-19T01:59:20;14.32;104.13
66835;HTU21D;53743;51.100;5.874;2023-11-19T02:00:27;14.33;104.14
66835;HTU21D;53743;51.100;5.874;2023-11-19T02:01:29;14.36;104.16
66835;HTU21D;53743;51.100;5.874;2023-11-19T02:02:30;14.35;103.92
66835;HTU21D;53743;51.100;5.874;2023-11-19T02:03:34;14.36;103.87
66835;HTU21D;53743;51.100;5.874;2023-11-19T02:04:36;14.36;103.31
66835;HTU21D;53743;51.100;5.874;2023-11-19T02:05:39;14.32;103.34
66835;HTU21D;53743;51.100;5.874;2023-11-19T02:06:41;14.34;103.81
66835;HTU21D;53743;51.100;5.874;2023-11-19T02:07:45;14.34;104.11
66835;HTU21D;53743;51.100;5.874;2023-11-19T02:08:46;14.35;103.35
66835;HTU21D;53743;51.100;5.874;2023-11-19T02:09:49;14.37;103.50
66835;HTU21D;53743;51.100;5.874;2023-11-19T02:10:50;14.36;103.56
66835;HTU21D;53743;51.100;5.874;2023-11-19T02:11:52;14.37;103.67
66835;HTU21D;53743;51.100;5.874;2023-11-19T02:12:55;14.38;103.63
66835;HTU21D;53743;51.100;5.874;2023-11-19T02:13:57;14.40;103.89
66835;HTU21D;53743;51.100;5.874;2023-11-19T02:14:58;14.39;103.37
66835;HTU21D;53743;51.100;5.874;2023-11-19T02:16:00;14.42;103.38
66835;HTU21D;53743;51.100;5.874;2023-11-19T02:17:02;14.40;103.05
66835;HTU21D;53743;51.100;5.874;2023-11-19T02:18:21;14.39;103.12
66835;HTU21D;53743;51.100;5.874;2023-11-19T02:19:25;14.36;103.48
66835;HTU21D;53743;51.100;5.874;2023-11-19T02:20:27;14.33;102.84
66835;HTU21D;53743;51.100;5.874;2023-11-19T02:21:28;14.37;102.95
66835;HTU21D;53743;51.100;5.874;2023-11-19T02:22:30;14.40;102.32
66835;HTU21D;53743;51.100;5.874;2023-11-19T02:23:32;14.37;102.70
66835;HTU21D;53743;51.100;5.874;2023-11-19T02:24:34;14.33;102.33
66835;HTU21D;53743;51.100;5.874;2023-11-19T02:25:37;14.36;102.80
66835;HTU21D;53743;51.100;5.874;2023-11-19T02:26:49;14.30;102.83
66835;HTU21D;53743;51.100;5.874;2023-11-19T02:27:59;14.30;102.52
66835;HTU21D;53743;51.100;5.874;2023-11-19T02:29:03;14.35;102.73
66835;HTU21D;53743;51.100;5.874;2023-11-19T02:30:05;14.35;102.23
66835;HTU21D;53743;51.100;5.874;2023-11-19T02:31:09;14.34;102.54
66835;HTU21D;53743;51.100;5.874;2023-11-19T02:32:10;14.26;102.30
66835;HTU21D;53743;51.100;5.874;2023-11-19T02:33:14;14.27;102.91
66835;HTU21D;53743;51.100;5.874;2023-11-19T02:34:15;14.24;102.57
66835;HTU21D;53743;51.100;5.874;2023-11-19T02:35:17;14.26;102.78
66835;HTU21D;53743;51.100;5.874;2023-11-19T02:36:18;14.30;102.73
66835;HTU21D;53743;51.100;5.874;2023-11-19T02:37:22;14.29;102.36
66835;HTU21D;53743;51.100;5.874;2023-11-19T02:38:23;14.33;102.33
66835;HTU21D;53743;51.100;5.874;2023-11-19T02:39:25;14.30;102.59
66835;HTU21D;53743;51.100;5.874;2023-11-19T02:40:27;14.34;102.53
66835;HTU21D;53743;51.100;5.874;2023-11-19T02:41:28;14.26;102.23
66835;HTU21D;53743;51.100;5.874;2023-11-19T02:42:30;14.27;102.51
66835;HTU21D;53743;51.100;5.874;2023-11-19T02:43:33;14.34;102.44
66835;HTU21D;53743;51.100;5.874;2023-11-19T02:44:35;14.33;101.62
66835;HTU21D;53743;51.100;5.874;2023-11-19T02:45:37;14.33;101.41
66835;HTU21D;53743;51.100;5.874;2023-11-19T02:46:38;14.28;101.80
66835;HTU21D;53743;51.100;5.874;2023-11-19T02:47:43;14.28;101.69
66835;HTU21D;53743;51.100;5.874;2023-11-19T02:48:45;14.27;101.03
66835;HTU21D;53743;51.100;5.874;2023-11-19T02:49:47;14.26;101.06
66835;HTU21D;53743;51.100;5.874;2023-11-19T02:50:48;14.26;101.17
66835;HTU21D;53743;51.100;5.874;2023-11-19T02:51:49;14.28;101.82
66835;HTU21D;53743;51.100;5.874;2023-11-19T02:52:53;14.27;101.77
66835;HTU21D;53743;51.100;5.874;2023-11-19T02:53:56;14.26;101.19
66835;HTU21D;53743;51.100;5.874;2023-11-19T02:54:58;14.28;101.20
66835;HTU21D;53743;51.100;5.874;2023-11-19T02:56:00;14.24;99.93
66835;HTU21D;53743;51.100;5.874;2023-11-19T02:57:10;14.24;100.28
66835;HTU21D;53743;51.100;5.874;2023-11-19T02:58:12;14.29;100.15
66835;HTU21D;53743;51.100;5.874;2023-11-19T02:59:21;14.33;100.24
66835;HTU21D;53743;51.100;5.874;2023-11-19T03:00:28;14.27;100.01
66835;HTU21D;53743;51.100;5.874;2023-11-19T03:01:36;14.33;100.03
66835;HTU21D;53743;51.100;5.874;2023-11-19T03:02:39;14.27;99.45
66835;HTU21D;53743;51.100;5.874;2023-11-19T03:03:45;14.22;98.61
66835;HTU21D;53743;51.100;5.874;2023-11-19T03:04:49;14.27;98.74
66835;HTU21D;53743;51.100;5.874;2023-11-19T03:05:50;14.25;98.28
66835;HTU21D;53743;51.100;5.874;2023-11-19T03:06:52;14.19;98.71
66835;HTU21D;53743;51.100;5.874;2023-11-19T03:07:53;14.17;98.08
66835;HTU21D;53743;51.100;5.874;2023-11-19T03:08:55;14.14;98.77
66835;HTU21D;53743;51.100;5.874;2023-11-19T03:09:57;14.17;98.75
66835;HTU21D;53743;51.100;5.874;2023-11-19T03:10:58;14.18;98.44
66835;HTU21D;53743;51.100;5.874;2023-11-19T03:12:00;14.14;98.64
66835;HTU21D;53743;51.100;5.874;2023-11-19T03:13:02;14.09;97.97
66835;HTU21D;53743;51.100;5.874;2023-11-19T03:14:04;14.13;98.54
66835;HTU21D;53743;51.100;5.874;2023-11-19T03:15:07;14.15;99.16
66835;HTU21D;53743;51.100;5.874;2023-11-19T03:16:10;14.14;99.15
66835;HTU21D;53743;51.100;5.874;2023-11-19T03:17:11;14.21;99.34
66835;HTU21D;53743;51.100;5.874;2023-11-19T03:18:14;14.24;98.20
66835;HTU21D;53743;51.100;5.874;2023-11-19T03:19:15;14.26;97.52
66835;HTU21D;53743;51.100;5.874;2023-11-19T03:20:17;14.23;97.00
66835;HTU21D;53743;51.100;5.874;2023-11-19T03:21:18;14.18;97.31
66835;HTU21D;53743;51.100;5.874;2023-11-19T03:22:22;0.00;97.09
66835;HTU21D;53743;51.100;5.874;2023-11-19T03:23:26;14.14;98.47
66835;HTU21D;53743;51.100;5.874;2023-11-19T03:24:28;14.17;97.98
66835;HTU21D;53743;51.100;5.874;2023-11-19T03:25:29;14.15;97.58
66835;HTU21D;53743;51.100;5.874;2023-11-19T03:26:35;14.18;98.03
66835;HTU21D;53743;51.100;5.874;2023-11-19T03:27:38;14.17;96.91
66835;HTU21D;53743;51.100;5.874;2023-11-19T03:28:42;14.12;98.11
66835;HTU21D;53743;51.100;5.874;2023-11-19T03:29:43;14.09;98.48
66835;HTU21D;53743;51.100;5.874;2023-11-19T03:30:46;14.06;98.51
66835;HTU21D;53743;51.100;5.874;2023-11-19T03:31:47;14.01;98.62
66835;HTU21D;53743;51.100;5.874;2023-11-19T03:32:50;13.92;98.71
66835;HTU21D;53743;51.100;5.874;2023-11-19T03:33:51;13.84;99.38
66835;HTU21D;53743;51.100;5.874;2023-11-19T03:34:53;13.84;100.16
66835;HTU21D;53743;51.100;5.874;2023-11-19T03:35:56;13.82;99.80
66835;HTU21D;53743;51.100;5.874;2023-11-19T03:36:57;13.78;100.38
66835;HTU21D;53743;51.100;5.874;2023-11-19T03:38:00;13.75;100.70
66835;HTU21D;53743;51.100;5.874;2023-11-19T03:39:01;13.73;100.65
66835;HTU21D;53743;51.100;5.874;2023-11-19T03:40:05;13.73;100.91
66835;HTU21D;53743;51.100;5.874;2023-11-19T03:41:10;13.71;100.93
66835;HTU21D;53743;51.100;5.874;2023-11-19T03:42:13;13.71;101.10
66835;HTU21D;53743;51.100;5.874;2023-11-19T03:43:15;13.70;101.12
66835;HTU21D;53743;51.100;5.874;2023-11-19T03:44:16;13.69;101.19
66835;HTU21D;53743;51.100;5.874;2023-11-19T03:45:19;13.65;101.10
66835;HTU21D;53743;51.100;5.874;2023-11-19T03:46:24;13.60;101.26
66835;HTU21D;53743;51.100;5.874;2023-11-19T03:47:27;13.59;101.51
66835;HTU21D;53743;51.100;5.874;2023-11-19T03:48:29;13.53;101.81
66835;HTU21D;53743;51.100;5.874;2023-11-19T03:49:30;13.50;101.91
66835;HTU21D;53743;51.100;5.874;2023-11-19T03:50:31;13.49;102.20
66835;HTU21D;53743;51.100;5.874;2023-11-19T03:51:34;13.49;102.22
66835;HTU21D;53743;51.100;5.874;2023-11-19T03:52:35;13.49;102.23
66835;HTU21D;53743;51.100;5.874;2023-11-19T03:53:38;13.45;101.89
66835;HTU21D;53743;51.100;5.874;2023-11-19T03:54:39;13.41;102.40
66835;HTU21D;53743;51.100;5.874;2023-11-19T03:55:41;13.39;102.51
66835;HTU21D;53743;51.100;5.874;2023-11-19T03:56:42;13.41;102.92
66835;HTU21D;53743;51.100;5.874;2023-11-19T03:57:44;13.40;102.74
66835;HTU21D;53743;51.100;5.874;2023-11-19T03:58:45;13.39;103.14
66835;HTU21D;53743;51.100;5.874;2023-11-19T03:59:47;13.38;102.77
66835;HTU21D;53743;51.100;5.874;2023-11-19T04:00:48;13.40;102.78
66835;HTU21D;53743;51.100;5.874;2023-11-19T04:01:52;13.41;102.58
66835;HTU21D;53743;51.100;5.874;2023-11-19T04:02:54;13.45;102.78
66835;HTU21D;53743;51.100;5.874;2023-11-19T04:03:56;13.50;102.50
66835;HTU21D;53743;51.100;5.874;2023-11-19T04:04:57;13.54;101.93
66835;HTU21D;53743;51.100;5.874;2023-11-19T04:05:59;13.54;101.96
66835;HTU21D;53743;51.100;5.874;2023-11-19T04:07:01;13.60;101.83
66835;HTU21D;53743;51.100;5.874;2023-11-19T04:08:03;13.65;101.84
66835;HTU21D;53743;51.100;5.874;2023-11-19T04:09:06;13.66;101.33
66835;HTU21D;53743;51.100;5.874;2023-11-19T04:10:07;13.70;101.85
66835;HTU21D;53743;51.100;5.874;2023-11-19T04:11:10;13.68;101.50
66835;HTU21D;53743;51.100;5.874;2023-11-19T04:12:11;13.70;101.44
66835;HTU21D;53743;51.100;5.874;2023-11-19T04:13:13;13.65;100.36
66835;HTU21D;53743;51.100;5.874;2023-11-19T04:14:15;13.63;100.36
66835;HTU21D;53743;51.100;5.874;2023-11-19T04:15:18;13.66;100.37
66835;HTU21D;53743;51.100;5.874;2023-11-19T04:16:26;13.62;100.58
66835;HTU21D;53743;51.100;5.874;2023-11-19T04:17:29;13.61;100.12
66835;HTU21D;53743;51.100;5.874;2023-11-19T04:18:31;13.62;100.79
66835;HTU21D;53743;51.100;5.874;2023-11-19T04:19:33;13.60;99.91
66835;HTU21D;53743;51.100;5.874;2023-11-19T04:20:35;13.56;99.52
66835;HTU21D;53743;51.100;5.874;2023-11-19T04:21:37;13.54;100.41
66835;HTU21D;53743;51.100;5.874;2023-11-19T04:22:41;13.56;98.96
66835;HTU21D;53743;51.100;5.874;2023-11-19T04:23:42;13.55;99.68
66835;HTU21D;53743;51.100;5.874;2023-11-19T04:24:44;13.56;99.89
66835;HTU21D;53743;51.100;5.874;2023-11-19T04:25:46;13.52;99.41
66835;HTU21D;53743;51.100;5.874;2023-11-19T04:26:47;13.50;99.87
66835;HTU21D;53743;51.100;5.874;2023-11-19T04:27:49;13.51;99.88
66835;HTU21D;53743;51.100;5.874;2023-11-19T04:28:50;13.55;99.71
66835;HTU21D;53743;51.100;5.874;2023-11-19T04:29:54;13.53;99.29
66835;HTU21D;53743;51.100;5.874;2023-11-19T04:30:55;13.54;99.77
66835;HTU21D;53743;51.100;5.874;2023-11-19T04:31:59;13.49;99.53
66835;HTU21D;53743;51.100;5.874;2023-11-19T04:33:03;13.48;99.03
66835;HTU21D;53743;51.100;5.874;2023-11-19T04:34:04;13.52;99.65
66835;HTU21D;53743;51.100;5.874;2023-11-19T04:35:07;13.55;99.00
66835;HTU21D;53743;51.100;5.874;2023-11-19T04:36:10;13.50;99.43
66835;HTU21D;53743;51.100;5.874;2023-11-19T04:37:12;13.49;99.78
66835;HTU21D;53743;51.100;5.874;2023-11-19T04:38:14;13.48;99.84
66835;HTU21D;53743;51.100;5.874;2023-11-19T04:39:15;13.49;99.83
66835;HTU21D;53743;51.100;5.874;2023-11-19T04:40:19;13.48;99.51
66835;HTU21D;53743;51.100;5.874;2023-11-19T04:41:23;13.47;100.07
66835;HTU21D;53743;51.100;5.874;2023-11-19T04:42:25;13.43;100.10
66835;HTU21D;53743;51.100;5.874;2023-11-19T04:43:26;13.48;100.51
66835;HTU21D;53743;51.100;5.874;2023-11-19T04:44:28;13.45;99.75
66835;HTU21D;53743;51.100;5.874;2023-11-19T04:45:30;13.52;99.99
66835;HTU21D;53743;51.100;5.874;2023-11-19T04:46:31;13.50;99.79
66835;HTU21D;53743;51.100;5.874;2023-11-19T04:47:33;13.48;99.26
66835;HTU21D;53743;51.100;5.874;2023-11-19T04:48:36;13.49;99.94
66835;HTU21D;53743;51.100;5.874;2023-11-19T04:49:40;13.54;100.07
66835;HTU21D;53743;51.100;5.874;2023-11-19T04:50:44;13.50;98.87
66835;HTU21D;53743;51.100;5.874;2023-11-19T04:51:45;13.54;99.77
66835;HTU21D;53743;51.100;5.874;2023-11-19T04:52:48;13.55;99.03
66835;HTU21D;53743;51.100;5.874;2023-11-19T04:53:49;13.50;98.91
66835;HTU21D;53743;51.100;5.874;2023-11-19T04:54:51;13.50;99.64
66835;HTU21D;53743;51.100;5.874;2023-11-19T04:55:53;13.48;99.16
66835;HTU21D;53743;51.100;5.874;2023-11-19T04:56:54;13.46;99.15
66835;HTU21D;53743;51.100;5.874;2023-11-19T04:57:55;13.48;99.06
66835;HTU21D;53743;51.100;5.874;2023-11-19T04:58:57;13.48;99.03
66835;HTU21D;53743;51.100;5.874;2023-11-19T04:59:59;13.51;99.21
66835;HTU21D;53743;51.100;5.874;2023-11-19T05:01:01;13.45;98.48
66835;HTU21D;53743;51.100;5.874;2023-11-19T05:02:03;13.51;98.00
66835;HTU21D;53743;51.100;5.874;2023-11-19T05:03:05;13.51;98.87
66835;HTU21D;53743;51.100;5.874;2023-11-19T05:04:08;13.51;99.00
66835;HTU21D;53743;51.100;5.874;2023-11-19T05:05:11;13.54;98.30
66835;HTU21D;53743;51.100;5.874;2023-11-19T05:06:12;13.54;97.92
66835;HTU21D;53743;51.100;5.874;2023-11-19T05:07:14;13.56;97.36
66835;HTU21D;53743;51.100;5.874;2023-11-19T05:08:15;13.56;97.70
66835;HTU21D;53743;51.100;5.874;2023-11-19T05:09:16;13.56;97.54
66835;HTU21D;53743;51.100;5.874;2023-11-19T05:10:18;13.52;97.50
66835;HTU21D;53743;51.100;5.874;2023-11-19T05:11:20;13.47;97.56
66835;HTU21D;53743;51.100;5.874;2023-11-19T05:12:23;13.45;97.86
66835;HTU21D;53743;51.100;5.874;2023-11-19T05:13:24;13.47;98.16
66835;HTU21D;53743;51.100;5.874;2023-11-19T05:14:26;13.45;98.04
66835;HTU21D;53743;51.100;5.874;2023-11-19T05:15:27;13.40;97.26
66835;HTU21D;53743;51.100;5.874;2023-11-19T05:16:29;13.38;97.55
66835;HTU21D;53743;51.100;5.874;2023-11-19T05:17:30;13.39;97.45
66835;HTU21D;53743;51.100;5.874;2023-11-19T05:18:32;13.32;98.41
66835;HTU21D;53743;51.100;5.874;2023-11-19T05:19:35;13.30;98.11
66835;HTU21D;53743;51.100;5.874;2023-11-19T05:20:37;13.34;98.51
66835;HTU21D;53743;51.100;5.874;2023-11-19T05:21:38;13.44;97.81
66835;HTU21D;53743;51.100;5.874;2023-11-19T05:22:40;13.40;97.89
66835;HTU21D;53743;51.100;5.874;2023-11-19T05:23:41;13.43;97.05
66835;HTU21D;53743;51.100;5.874;2023-11-19T05:24:43;13.36;97.53
66835;HTU21D;53743;51.100;5.874;2023-11-19T05:25:44;13.31;96.98
66835;HTU21D;53743;51.100;5.874;2023-11-19T05:26:46;13.30;98.14
66835;HTU21D;53743;51.100;5.874;2023-11-19T05:27:48;13.33;97.58
66835;HTU21D;53743;51.100;5.874;2023-11-19T05:28:50;13.43;96.52
66835;HTU21D;53743;51.100;5.874;2023-11-19T05:29:52;13.35;96.46
66835;HTU21D;53743;51.100;5.874;2023-11-19T05:30:53;13.40;96.68
66835;HTU21D;53743;51.100;5.874;2023-11-19T05:31:54;13.32;96.41
66835;HTU21D;53743;51.100;5.874;2023-11-19T05:32:56;13.36;95.64
66835;HTU21D;53743;51.100;5.874;2023-11-19T05:33:57;13.41;95.76
66835;HTU21D;53743;51.100;5.874;2023-11-19T05:35:00;13.34;95.88
66835;HTU21D;53743;51.100;5.874;2023-11-19T05:36:02;13.35;96.14
66835;HTU21D;53743;51.100;5.874;2023-11-19T05:37:04;13.31;95.32
66835;HTU21D;53743;51.100;5.874;2023-11-19T05:38:07;13.27;95.17
66835;HTU21D;53743;51.100;5.874;2023-11-19T05:39:08;13.31;96.23
66835;HTU21D;53743;51.100;5.874;2023-11-19T05:40:11;13.26;96.26
66835;HTU21D;53743;51.100;5.874;2023-11-19T05:41:15;13.22;95.37
66835;HTU21D;53743;51.100;5.874;2023-11-19T05:42:17;13.26;95.60
66835;HTU21D;53743;51.100;5.874;2023-11-19T05:43:18;13.29;95.04
66835;HTU21D;53743;51.100;5.874;2023-11-19T05:44:20;13.35;92.68
66835;HTU21D;53743;51.100;5.874;2023-11-19T05:45:21;13.31;94.16
66835;HTU21D;53743;51.100;5.874;2023-11-19T05:46:23;13.29;94.51
66835;HTU21D;53743;51.100;5.874;2023-11-19T05:47:26;13.29;95.09
66835;HTU21D;53743;51.100;5.874;2023-11-19T05:48:27;13.29;94.30
66835;HTU21D;53743;51.100;5.874;2023-11-19T05:49:28;13.24;94.67
66835;HTU21D;53743;51.100;5.874;2023-11-19T05:50:31;13.26;94.27
66835;HTU21D;53743;51.100;5.874;2023-11-19T05:51:36;13.27;93.83
66835;HTU21D;53743;51.100;5.874;2023-11-19T05:52:39;13.25;94.61
66835;HTU21D;53743;51.100;5.874;2023-11-19T05:53:40;13.22;95.02
66835;HTU21D;53743;51.100;5.874;2023-11-19T05:54:42;13.21;94.74
66835;HTU21D;53743;51.100;5.874;2023-11-19T05:55:43;13.17;94.55
66835;HTU21D;53743;51.100;5.874;2023-11-19T05:56:49;13.15;95.04
66835;HTU21D;53743;51.100;5.874;2023-11-19T05:57:50;13.09;94.87
66835;HTU21D;53743;51.100;5.874;2023-11-19T05:58:52;13.14;94.78
66835;HTU21D;53743;51.100;5.874;2023-11-19T05:59:53;13.10;95.26
66835;HTU21D;53743;51.100;5.874;2023-11-19T06:00:55;13.06;94.82
66835;HTU21D;53743;51.100;5.874;2023-11-19T06:01:57;13.02;95.72
66835;HTU21D;53743;51.100;5.874;2023-11-19T06:02:59;13.03;96.06
66835;HTU21D;53743;51.100;5.874;2023-11-19T06:04:00;13.04;95.33
66835;HTU21D;53743;51.100;5.874;2023-11-19T06:05:03;13.08;95.37
66835;HTU21D;53743;51.100;5.874;2023-11-19T06:06:08;13.03;94.81
66835;HTU21D;53743;51.100;5.874;2023-11-19T06:07:10;13.04;95.33
66835;HTU21D;53743;51.100;5.874;2023-11-19T06:08:12;12.96;95.40
66835;HTU21D;53743;51.100;5.874;2023-11-19T06:09:15;13.00;94.75
66835;HTU21D;53743;51.100;5.874;2023-11-19T06:10:16;12.97;95.11
66835;HTU21D;53743;51.100;5.874;2023-11-19T06:11:18;12.93;94.94
66835;HTU21D;53743;51.100;5.874;2023-11-19T06:12:20;12.84;94.20
66835;HTU21D;53743;51.100;5.874;2023-11-19T06:13:22;12.88;94.59
66835;HTU21D;53743;51.100;5.874;2023-11-19T06:14:27;12.90;93.87
66835;HTU21D;53743;51.100;5.874;2023-11-19T06:15:28;12.92;94.21
66835;HTU21D;53743;51.100;5.874;2023-11-19T06:16:30;12.85;94.78
66835;HTU21D;53743;51.100;5.874;2023-11-19T06:17:31;12.91;95.04
66835;HTU21D;53743;51.100;5.874;2023-11-19T06:18:33;12.86;94.43
66835;HTU21D;53743;51.100;5.874;2023-11-19T06:19:34;12.81;94.22
66835;HTU21D;53743;51.100;5.874;2023-11-19T06:20:36;12.80;95.30
66835;HTU21D;53743;51.100;5.874;2023-11-19T06:21:39;12.75;94.79
66835;HTU21D;53743;51.100;5.874;2023-11-19T06:22:42;12.79;95.36
66835;HTU21D;53743;51.100;5.874;2023-11-19T06:23:44;12.86;95.01